sensor_id;sensor_type;location;lat;lon;timestamp;pressure;altitude;pressure_sealevel;temperature;humidity
61318;BME280;47201;40.428;-8.436;2023-04-26T00:00:36;100754.34;;;13.45;100.00
61318;BME280;47201;40.428;-8.436;2023-04-26T00:02:36;100759.66;;;13.39;100.00
61318;BME280;47201;40.428;-8.436;2023-04-26T00:04:37;100758.88;;;13.29;100.00
61318;BME280;47201;40.428;-8.436;2023-04-26T00:06:38;100762.44;;;13.25;100.00
61318;BME280;47201;40.428;-8.436;2023-04-26T00:08:39;100765.97;;;13.21;100.00
61318;BME280;47201;40.428;-8.436;2023-04-26T00:10:42;100766.88;;;13.18;100.00
61318;BME280;47201;40.428;-8.436;2023-04-26T00:12:43;100772.94;;;13.23;100.00
61318;BME280;47201;40.428;-8.436;2023-04-26T00:14:43;100763.31;;;13.22;100.00
61318;BME280;47201;40.428;-8.436;2023-04-26T00:16:44;100765.81;;;13.35;100.00
61318;BME280;47201;40.428;-8.436;2023-04-26T00:18:45;100764.06;;;13.38;100.00
61318;BME280;47201;40.428;-8.436;2023-04-26T00:20:45;100760.41;;;13.48;100.00
61318;BME280;47201;40.428;-8.436;2023-04-26T00:22:46;100762.16;;;13.49;100.00
61318;BME280;47201;40.428;-8.436;2023-04-26T00:24:46;100764.06;;;13.38;100.00
61318;BME280;47201;40.428;-8.436;2023-04-26T00:26:52;100758.06;;;13.25;100.00
61318;BME280;47201;40.428;-8.436;2023-04-26T00:28:52;100760.78;;;13.17;100.00
61318;BME280;47201;40.428;-8.436;2023-04-26T00:30:53;100757.28;;;13.17;100.00
61318;BME280;47201;40.428;-8.436;2023-04-26T00:32:56;100762.56;;;13.12;100.00
61318;BME280;47201;40.428;-8.436;2023-04-26T00:34:57;100743.28;;;13.16;100.00
61318;BME280;47201;40.428;-8.436;2023-04-26T00:37:16;100750.28;;;13.16;100.00
61318;BME280;47201;40.428;-8.436;2023-04-26T00:39:17;100744.13;;;13.20;100.00
61318;BME280;47201;40.428;-8.436;2023-04-26T00:41:17;100739.78;;;13.17;100.00
61318;BME280;47201;40.428;-8.436;2023-04-26T00:43:18;100735.47;;;13.12;100.00
61318;BME280;47201;40.428;-8.436;2023-04-26T00:45:18;100738.09;;;13.12;100.00
61318;BME280;47201;40.428;-8.436;2023-04-26T00:47:19;100739.00;;;13.08;100.00
61318;BME280;47201;40.428;-8.436;2023-04-26T00:49:35;100734.72;;;13.02;100.00
61318;BME280;47201;40.428;-8.436;2023-04-26T00:51:35;100740.84;;;12.99;100.00
61318;BME280;47201;40.428;-8.436;2023-04-26T00:53:36;100730.34;;;12.99;100.00
61318;BME280;47201;40.428;-8.436;2023-04-26T00:55:37;100732.03;;;13.05;100.00
61318;BME280;47201;40.428;-8.436;2023-04-26T00:57:38;100727.63;;;13.07;100.00
61318;BME280;47201;40.428;-8.436;2023-04-26T00:59:38;100734.59;;;13.13;100.00
61318;BME280;47201;40.428;-8.436;2023-04-26T01:01:39;100732.03;;;13.05;100.00
61318;BME280;47201;40.428;-8.436;2023-04-26T01:03:41;100726.00;;;12.97;100.00
61318;BME280;47201;40.428;-8.436;2023-04-26T01:05:45;100726.09;;;12.89;100.00
61318;BME280;47201;40.428;-8.436;2023-04-26T01:07:46;100727.88;;;12.85;100.00
61318;BME280;47201;40.428;-8.436;2023-04-26T01:09:47;100726.19;;;12.80;100.00
61318;BME280;47201;40.428;-8.436;2023-04-26T01:11:48;100725.34;;;12.76;100.00
61318;BME280;47201;40.428;-8.436;2023-04-26T01:13:49;100720.16;;;12.73;100.00
61318;BME280;47201;40.428;-8.436;2023-04-26T01:15:50;100712.31;;;12.70;100.00
61318;BME280;47201;40.428;-8.436;2023-04-26T01:17:51;100714.75;;;12.85;100.00
61318;BME280;47201;40.428;-8.436;2023-04-26T01:19:52;100706.91;;;12.85;100.00
61318;BME280;47201;40.428;-8.436;2023-04-26T01:21:52;100691.06;;;12.92;100.00
61318;BME280;47201;40.428;-8.436;2023-04-26T01:23:54;100699.84;;;12.91;100.00
61318;BME280;47201;40.428;-8.436;2023-04-26T01:25:55;100691.84;;;13.01;100.00
61318;BME280;47201;40.428;-8.436;2023-04-26T01:27:56;100687.31;;;13.14;100.00
61318;BME280;47201;40.428;-8.436;2023-04-26T01:29:58;100677.53;;;13.26;100.00
61318;BME280;47201;40.428;-8.436;2023-04-26T01:32:02;100674.84;;;13.30;100.00
61318;BME280;47201;40.428;-8.436;2023-04-26T01:34:03;100669.66;;;13.26;100.00
61318;BME280;47201;40.428;-8.436;2023-04-26T01:36:07;100675.81;;;13.23;100.00
61318;BME280;47201;40.428;-8.436;2023-04-26T01:38:13;100660.19;;;13.15;100.00
61318;BME280;47201;40.428;-8.436;2023-04-26T01:40:13;100662.91;;;13.06;100.00
61318;BME280;47201;40.428;-8.436;2023-04-26T01:42:14;100651.63;;;12.98;100.00
61318;BME280;47201;40.428;-8.436;2023-04-26T01:44:14;100654.25;;;12.98;100.00
61318;BME280;47201;40.428;-8.436;2023-04-26T01:46:15;100643.75;;;13.01;100.00
61318;BME280;47201;40.428;-8.436;2023-04-26T01:48:15;100647.25;;;13.00;100.00
61318;BME280;47201;40.428;-8.436;2023-04-26T01:50:16;100644.72;;;12.92;100.00
61318;BME280;47201;40.428;-8.436;2023-04-26T01:52:16;100642.22;;;12.83;100.00
61318;BME280;47201;40.428;-8.436;2023-04-26T01:54:19;100637.06;;;12.74;100.00
61318;BME280;47201;40.428;-8.436;2023-04-26T01:56:22;100630.19;;;12.65;100.00
61318;BME280;47201;40.428;-8.436;2023-04-26T01:58:23;100631.06;;;12.62;100.00
61318;BME280;47201;40.428;-8.436;2023-04-26T02:00:23;100628.41;;;12.67;100.00
61318;BME280;47201;40.428;-8.436;2023-04-26T02:02:24;100623.16;;;12.67;100.00
61318;BME280;47201;40.428;-8.436;2023-04-26T02:04:24;100616.16;;;12.66;100.00
61318;BME280;47201;40.428;-8.436;2023-04-26T02:06:25;100625.81;;;12.64;100.00
61318;BME280;47201;40.428;-8.436;2023-04-26T02:08:44;100625.00;;;12.57;100.00
61318;BME280;47201;40.428;-8.436;2023-04-26T02:10:45;100618.03;;;12.56;100.00
61318;BME280;47201;40.428;-8.436;2023-04-26T02:12:47;100625.81;;;12.64;100.00
61318;BME280;47201;40.428;-8.436;2023-04-26T02:14:47;100614.41;;;12.68;100.00
61318;BME280;47201;40.428;-8.436;2023-04-26T02:16:49;100616.94;;;12.74;100.00
61318;BME280;47201;40.428;-8.436;2023-04-26T02:19:09;100616.94;;;12.76;100.00
61318;BME280;47201;40.428;-8.436;2023-04-26T02:21:31;100619.56;;;12.76;100.00
61318;BME280;47201;40.428;-8.436;2023-04-26T02:23:50;100606.44;;;12.74;100.00
61318;BME280;47201;40.428;-8.436;2023-04-26T02:25:51;100604.66;;;12.78;100.00
61318;BME280;47201;40.428;-8.436;2023-04-26T02:28:10;100607.22;;;12.85;100.00
61318;BME280;47201;40.428;-8.436;2023-04-26T02:30:33;100600.09;;;12.94;100.00
61318;BME280;47201;40.428;-8.436;2023-04-26T02:32:52;100599.06;;;13.07;100.00
61318;BME280;47201;40.428;-8.436;2023-04-26T02:34:54;100596.31;;;13.16;100.00
61318;BME280;47201;40.428;-8.436;2023-04-26T02:36:55;100603.19;;;13.22;100.00
61318;BME280;47201;40.428;-8.436;2023-04-26T02:38:55;100595.25;;;13.27;100.00
61318;BME280;47201;40.428;-8.436;2023-04-26T02:40:57;100604.84;;;13.31;100.00
61318;BME280;47201;40.428;-8.436;2023-04-26T02:42:57;100614.41;;;13.35;100.00
61318;BME280;47201;40.428;-8.436;2023-04-26T02:44:58;100610.88;;;13.36;100.00
61318;BME280;47201;40.428;-8.436;2023-04-26T02:46:59;100603.88;;;13.40;100.00
61318;BME280;47201;40.428;-8.436;2023-04-26T02:49:00;100603.75;;;13.49;100.00
61318;BME280;47201;40.428;-8.436;2023-04-26T02:51:00;100607.09;;;13.59;100.00
61318;BME280;47201;40.428;-8.436;2023-04-26T02:53:01;100606.13;;;13.63;100.00
61318;BME280;47201;40.428;-8.436;2023-04-26T02:55:03;100593.84;;;13.65;100.00
61318;BME280;47201;40.428;-8.436;2023-04-26T02:57:04;100590.44;;;13.60;100.00
61318;BME280;47201;40.428;-8.436;2023-04-26T02:59:05;100592.22;;;13.58;100.00
61318;BME280;47201;40.428;-8.436;2023-04-26T03:01:06;100594.81;;;13.61;100.00
61318;BME280;47201;40.428;-8.436;2023-04-26T03:03:07;100599.81;;;13.76;100.00
61318;BME280;47201;40.428;-8.436;2023-04-26T03:05:08;100587.47;;;13.82;100.00
61318;BME280;47201;40.428;-8.436;2023-04-26T03:07:08;100575.09;;;13.88;100.00
61318;BME280;47201;40.428;-8.436;2023-04-26T03:09:09;100584.72;;;13.88;100.00
61318;BME280;47201;40.428;-8.436;2023-04-26T03:11:29;100578.69;;;13.83;100.00
61318;BME280;47201;40.428;-8.436;2023-04-26T03:13:48;100585.75;;;13.79;100.00
61318;BME280;47201;40.428;-8.436;2023-04-26T03:15:49;100579.69;;;13.75;100.00
61318;BME280;47201;40.428;-8.436;2023-04-26T03:17:51;100588.50;;;13.71;100.00
61318;BME280;47201;40.428;-8.436;2023-04-26T03:19:52;100584.19;;;13.67;100.00
61318;BME280;47201;40.428;-8.436;2023-04-26T03:21:53;100584.31;;;13.59;100.00
61318;BME280;47201;40.428;-8.436;2023-04-26T03:23:54;100579.16;;;13.53;100.00
61318;BME280;47201;40.428;-8.436;2023-04-26T03:25:54;100580.97;;;13.51;100.00
61318;BME280;47201;40.428;-8.436;2023-04-26T03:27:56;100577.44;;;13.51;100.00
61318;BME280;47201;40.428;-8.436;2023-04-26T03:29:56;100587.03;;;13.53;100.00
61318;BME280;47201;40.428;-8.436;2023-04-26T03:31:57;100585.13;;;13.63;100.00
61318;BME280;47201;40.428;-8.436;2023-04-26T03:34:16;100585.00;;;13.71;100.00
61318;BME280;47201;40.428;-8.436;2023-04-26T03:36:18;100577.91;;;13.77;100.00
61318;BME280;47201;40.428;-8.436;2023-04-26T03:38:19;100575.13;;;13.85;100.00
61318;BME280;47201;40.428;-8.436;2023-04-26T03:40:20;100577.69;;;13.90;100.00
61318;BME280;47201;40.428;-8.436;2023-04-26T03:42:21;100570.81;;;13.83;100.00
61318;BME280;47201;40.428;-8.436;2023-04-26T03:44:40;100576.13;;;13.78;100.00
61318;BME280;47201;40.428;-8.436;2023-04-26T03:46:41;100577.91;;;13.76;100.00
61318;BME280;47201;40.428;-8.436;2023-04-26T03:48:43;100586.75;;;13.70;100.00
61318;BME280;47201;40.428;-8.436;2023-04-26T03:50:44;100578.94;;;13.67;100.00
61318;BME280;47201;40.428;-8.436;2023-04-26T03:52:45;100579.84;;;13.64;100.00
61318;BME280;47201;40.428;-8.436;2023-04-26T03:54:45;100578.13;;;13.63;100.00
61318;BME280;47201;40.428;-8.436;2023-04-26T03:56:46;100583.34;;;13.65;100.00
61318;BME280;47201;40.428;-8.436;2023-04-26T03:58:47;100581.56;;;13.67;100.00
61318;BME280;47201;40.428;-8.436;2023-04-26T04:00:48;100583.31;;;13.68;100.00
61318;BME280;47201;40.428;-8.436;2023-04-26T04:02:48;100587.63;;;13.71;100.00
61318;BME280;47201;40.428;-8.436;2023-04-26T04:04:57;100586.69;;;13.75;100.00
61318;BME280;47201;40.428;-8.436;2023-04-26T04:06:59;100583.06;;;13.84;100.00
61318;BME280;47201;40.428;-8.436;2023-04-26T04:09:00;100584.78;;;13.85;100.00
61318;BME280;47201;40.428;-8.436;2023-04-26T04:11:19;100582.97;;;13.87;100.00
61318;BME280;47201;40.428;-8.436;2023-04-26T04:13:19;100581.97;;;13.95;100.00
61318;BME280;47201;40.428;-8.436;2023-04-26T04:15:20;100583.69;;;13.96;100.00
61318;BME280;47201;40.428;-8.436;2023-04-26T04:17:39;100574.97;;;13.93;100.00
61318;BME280;47201;40.428;-8.436;2023-04-26T04:19:40;100581.28;;;13.84;100.00
61318;BME280;47201;40.428;-8.436;2023-04-26T04:21:40;100582.16;;;13.83;100.00
61318;BME280;47201;40.428;-8.436;2023-04-26T04:23:43;100586.59;;;13.79;100.00
61318;BME280;47201;40.428;-8.436;2023-04-26T04:25:46;100589.31;;;13.76;100.00
61318;BME280;47201;40.428;-8.436;2023-04-26T04:28:06;100590.19;;;13.75;100.00
61318;BME280;47201;40.428;-8.436;2023-04-26T04:30:08;100585.84;;;13.73;100.00
61318;BME280;47201;40.428;-8.436;2023-04-26T04:32:08;100588.50;;;13.71;100.00
61318;BME280;47201;40.428;-8.436;2023-04-26T04:34:10;100587.66;;;13.69;100.00
61318;BME280;47201;40.428;-8.436;2023-04-26T04:36:13;100592.09;;;13.64;100.00
61318;BME280;47201;40.428;-8.436;2023-04-26T04:38:35;100585.13;;;13.63;100.00
61318;BME280;47201;40.428;-8.436;2023-04-26T04:40:38;100587.75;;;13.63;100.00
61318;BME280;47201;40.428;-8.436;2023-04-26T04:42:39;100590.41;;;13.61;100.00
61318;BME280;47201;40.428;-8.436;2023-04-26T04:44:41;100584.41;;;13.53;100.00
61318;BME280;47201;40.428;-8.436;2023-04-26T04:47:04;100597.59;;;13.48;100.00
61318;BME280;47201;40.428;-8.436;2023-04-26T04:49:07;100594.19;;;13.43;100.00
61318;BME280;47201;40.428;-8.436;2023-04-26T04:51:11;100601.19;;;13.44;100.00
61318;BME280;47201;40.428;-8.436;2023-04-26T04:53:13;100597.63;;;13.47;100.00
61318;BME280;47201;40.428;-8.436;2023-04-26T04:55:15;100596.72;;;13.51;100.00
61318;BME280;47201;40.428;-8.436;2023-04-26T04:57:17;100599.28;;;13.54;100.00
61318;BME280;47201;40.428;-8.436;2023-04-26T04:59:19;100594.84;;;13.58;100.00
61318;BME280;47201;40.428;-8.436;2023-04-26T05:01:21;100589.63;;;13.56;100.00
61318;BME280;47201;40.428;-8.436;2023-04-26T05:03:26;100586.84;;;13.64;100.00
61318;BME280;47201;40.428;-8.436;2023-04-26T05:05:28;100577.16;;;13.68;100.00
61318;BME280;47201;40.428;-8.436;2023-04-26T05:07:30;100581.78;;;13.55;100.00
61318;BME280;47201;40.428;-8.436;2023-04-26T05:09:31;100580.09;;;13.49;100.00
61318;BME280;47201;40.428;-8.436;2023-04-26T05:11:31;100582.78;;;13.44;100.00
61318;BME280;47201;40.428;-8.436;2023-04-26T05:13:34;100585.47;;;13.41;100.00
61318;BME280;47201;40.428;-8.436;2023-04-26T05:15:34;100587.16;;;13.45;100.00
61318;BME280;47201;40.428;-8.436;2023-04-26T05:17:55;100583.75;;;13.37;100.00
61318;BME280;47201;40.428;-8.436;2023-04-26T05:20:13;100586.47;;;13.31;100.00
61318;BME280;47201;40.428;-8.436;2023-04-26T05:22:15;100584.72;;;13.30;100.00
61318;BME280;47201;40.428;-8.436;2023-04-26T05:24:33;100579.44;;;13.31;100.00
61318;BME280;47201;40.428;-8.436;2023-04-26T05:26:34;100590.88;;;13.29;100.00
61318;BME280;47201;40.428;-8.436;2023-04-26T05:28:53;100596.91;;;13.34;100.00
61318;BME280;47201;40.428;-8.436;2023-04-26T05:31:12;100599.53;;;13.36;100.00
61318;BME280;47201;40.428;-8.436;2023-04-26T05:33:30;100592.53;;;13.35;100.00
61318;BME280;47201;40.428;-8.436;2023-04-26T05:36:03;100597.78;;;13.35;100.00
61318;BME280;47201;40.428;-8.436;2023-04-26T05:38:04;100597.78;;;13.35;100.00
61318;BME280;47201;40.428;-8.436;2023-04-26T05:40:05;100599.56;;;13.32;100.00
61318;BME280;47201;40.428;-8.436;2023-04-26T05:42:24;100591.72;;;13.31;100.00
61318;BME280;47201;40.428;-8.436;2023-04-26T05:44:25;100595.22;;;13.30;100.00
61318;BME280;47201;40.428;-8.436;2023-04-26T05:46:25;100595.25;;;13.27;100.00
61318;BME280;47201;40.428;-8.436;2023-04-26T05:48:26;100595.31;;;13.24;100.00
61318;BME280;47201;40.428;-8.436;2023-04-26T05:50:26;100596.16;;;13.26;100.00
61318;BME280;47201;40.428;-8.436;2023-04-26T05:52:45;100593.47;;;13.32;100.00
61318;BME280;47201;40.428;-8.436;2023-04-26T05:55:05;100588.16;;;13.35;100.00
61318;BME280;47201;40.428;-8.436;2023-04-26T05:57:06;100585.44;;;13.44;100.00
61318;BME280;47201;40.428;-8.436;2023-04-26T05:59:07;100584.50;;;13.47;100.00
61318;BME280;47201;40.428;-8.436;2023-04-26T06:01:08;100592.31;;;13.52;100.00
61318;BME280;47201;40.428;-8.436;2023-04-26T06:03:08;100596.56;;;13.59;100.00
61318;BME280;47201;40.428;-8.436;2023-04-26T06:05:10;100597.38;;;13.64;100.00
61318;BME280;47201;40.428;-8.436;2023-04-26T06:07:11;100604.31;;;13.68;100.00
61318;BME280;47201;40.428;-8.436;2023-04-26T06:09:12;100610.47;;;13.67;100.00
61318;BME280;47201;40.428;-8.436;2023-04-26T06:11:31;100613.03;;;13.70;100.00
61318;BME280;47201;40.428;-8.436;2023-04-26T06:13:34;100609.44;;;13.77;100.00
61318;BME280;47201;40.428;-8.436;2023-04-26T06:15:34;100613.59;;;13.91;100.00
61318;BME280;47201;40.428;-8.436;2023-04-26T06:17:35;100612.41;;;14.09;100.00
61318;BME280;47201;40.428;-8.436;2023-04-26T06:19:54;100615.53;;;14.30;100.00
61318;BME280;47201;40.428;-8.436;2023-04-26T06:21:56;100610.06;;;14.40;100.00
61318;BME280;47201;40.428;-8.436;2023-04-26T06:23:57;100608.09;;;14.52;100.00
61318;BME280;47201;40.428;-8.436;2023-04-26T06:26:03;100607.84;;;14.64;100.00
61318;BME280;47201;40.428;-8.436;2023-04-26T06:28:04;100608.66;;;14.69;100.00
61318;BME280;47201;40.428;-8.436;2023-04-26T06:30:06;100605.88;;;14.77;100.00
61318;BME280;47201;40.428;-8.436;2023-04-26T06:32:27;100606.47;;;14.91;100.00
61318;BME280;47201;40.428;-8.436;2023-04-26T06:34:28;100605.34;;;15.03;100.00
61318;BME280;47201;40.428;-8.436;2023-04-26T06:36:32;100608.69;;;15.10;100.00
61318;BME280;47201;40.428;-8.436;2023-04-26T06:38:33;100612.91;;;15.17;100.00
61318;BME280;47201;40.428;-8.436;2023-04-26T06:40:34;100610.03;;;15.30;100.00
61318;BME280;47201;40.428;-8.436;2023-04-26T06:42:36;100612.25;;;15.47;100.00
61318;BME280;47201;40.428;-8.436;2023-04-26T06:44:59;100619.88;;;15.59;100.00
61318;BME280;47201;40.428;-8.436;2023-04-26T06:47:00;100625.59;;;15.77;100.00
61318;BME280;47201;40.428;-8.436;2023-04-26T06:49:01;100631.44;;;15.91;100.00
61318;BME280;47201;40.428;-8.436;2023-04-26T06:51:05;100624.09;;;16.02;100.00
61318;BME280;47201;40.428;-8.436;2023-04-26T06:53:06;100626.47;;;16.13;100.00
61318;BME280;47201;40.428;-8.436;2023-04-26T06:55:07;100632.28;;;16.26;100.00
61318;BME280;47201;40.428;-8.436;2023-04-26T06:57:08;100633.06;;;16.30;100.00
61318;BME280;47201;40.428;-8.436;2023-04-26T06:59:08;100627.63;;;16.36;100.00
61318;BME280;47201;40.428;-8.436;2023-04-26T07:01:27;100633.50;;;16.46;100.00
61318;BME280;47201;40.428;-8.436;2023-04-26T07:03:50;100641.13;;;16.58;100.00
61318;BME280;47201;40.428;-8.436;2023-04-26T07:05:54;100644.13;;;16.76;100.00
61318;BME280;47201;40.428;-8.436;2023-04-26T07:07:55;100639.16;;;16.65;100.00
61318;BME280;47201;40.428;-8.436;2023-04-26T07:09:56;100638.31;;;16.64;100.00
61318;BME280;47201;40.428;-8.436;2023-04-26T07:11:57;100641.59;;;16.73;100.00
61318;BME280;47201;40.428;-8.436;2023-04-26T07:13:57;100643.31;;;16.74;100.00
61318;BME280;47201;40.428;-8.436;2023-04-26T07:15:58;100636.38;;;16.70;100.00
61318;BME280;47201;40.428;-8.436;2023-04-26T07:17:59;100639.00;;;16.71;100.00
61318;BME280;47201;40.428;-8.436;2023-04-26T07:19:59;100638.47;;;16.58;100.00
61318;BME280;47201;40.428;-8.436;2023-04-26T07:22:00;100635.78;;;16.60;100.00
61318;BME280;47201;40.428;-8.436;2023-04-26T07:24:01;100635.44;;;16.72;100.00
61318;BME280;47201;40.428;-8.436;2023-04-26T07:26:01;100634.22;;;16.84;100.00
61318;BME280;47201;40.428;-8.436;2023-04-26T07:28:03;100626.28;;;16.86;100.00
61318;BME280;47201;40.428;-8.436;2023-04-26T07:30:08;100631.50;;;16.87;100.00
61318;BME280;47201;40.428;-8.436;2023-04-26T07:32:28;100629.84;;;16.83;100.00
61318;BME280;47201;40.428;-8.436;2023-04-26T07:34:34;100629.03;;;17.12;100.00
61318;BME280;47201;40.428;-8.436;2023-04-26T07:36:35;100633.53;;;17.09;100.00
61318;BME280;47201;40.428;-8.436;2023-04-26T07:38:35;100632.88;;;17.31;100.00
61318;BME280;47201;40.428;-8.436;2023-04-26T07:40:36;100629.44;;;17.57;100.00
61318;BME280;47201;40.428;-8.436;2023-04-26T07:42:36;100633.38;;;17.72;100.00
61318;BME280;47201;40.428;-8.436;2023-04-26T07:44:37;100638.03;;;17.90;100.00
61318;BME280;47201;40.428;-8.436;2023-04-26T07:46:37;100626.69;;;18.15;100.00
61318;BME280;47201;40.428;-8.436;2023-04-26T07:48:38;100627.69;;;18.11;100.00
61318;BME280;47201;40.428;-8.436;2023-04-26T07:50:39;100623.88;;;18.20;100.00
61318;BME280;47201;40.428;-8.436;2023-04-26T07:52:40;100622.91;;;18.22;100.00
61318;BME280;47201;40.428;-8.436;2023-04-26T07:54:44;100622.69;;;18.29;100.00
61318;BME280;47201;40.428;-8.436;2023-04-26T07:56:44;100629.31;;;18.15;100.00
61318;BME280;47201;40.428;-8.436;2023-04-26T07:58:45;100627.88;;;18.55;100.00
61318;BME280;47201;40.428;-8.436;2023-04-26T08:00:45;100635.94;;;18.78;100.00
61318;BME280;47201;40.428;-8.436;2023-04-26T08:02:46;100634.28;;;18.99;100.00
61318;BME280;47201;40.428;-8.436;2023-04-26T08:04:47;100634.09;;;19.27;100.00
61318;BME280;47201;40.428;-8.436;2023-04-26T08:06:54;100635.03;;;19.48;100.00
61318;BME280;47201;40.428;-8.436;2023-04-26T08:08:56;100646.19;;;20.01;98.02
61318;BME280;47201;40.428;-8.436;2023-04-26T08:10:58;100649.34;;;21.11;89.27
61318;BME280;47201;40.428;-8.436;2023-04-26T08:12:59;100640.84;;;21.60;85.58
61318;BME280;47201;40.428;-8.436;2023-04-26T08:15:02;100651.88;;;21.89;82.74
61318;BME280;47201;40.428;-8.436;2023-04-26T08:17:04;100642.19;;;22.23;79.52
61318;BME280;47201;40.428;-8.436;2023-04-26T08:19:05;100657.38;;;23.39;74.69
61318;BME280;47201;40.428;-8.436;2023-04-26T08:21:07;100650.16;;;24.92;66.01
61318;BME280;47201;40.428;-8.436;2023-04-26T08:23:26;100662.81;;;25.32;61.29
61318;BME280;47201;40.428;-8.436;2023-04-26T08:25:46;100658.09;;;26.58;57.48
61318;BME280;47201;40.428;-8.436;2023-04-26T08:27:47;100658.53;;;26.78;55.22
61318;BME280;47201;40.428;-8.436;2023-04-26T08:29:48;100664.91;;;26.36;55.52
61318;BME280;47201;40.428;-8.436;2023-04-26T08:31:49;100663.22;;;26.35;57.15
61318;BME280;47201;40.428;-8.436;2023-04-26T08:33:49;100667.59;;;27.14;54.99
61318;BME280;47201;40.428;-8.436;2023-04-26T08:35:51;100665.66;;;28.01;51.68
61318;BME280;47201;40.428;-8.436;2023-04-26T08:37:51;100668.56;;;28.34;50.57
61318;BME280;47201;40.428;-8.436;2023-04-26T08:39:52;100664.69;;;28.49;50.08
61318;BME280;47201;40.428;-8.436;2023-04-26T08:41:53;100658.56;;;28.36;51.47
61318;BME280;47201;40.428;-8.436;2023-04-26T08:44:13;100659.44;;;28.37;52.49
61318;BME280;47201;40.428;-8.436;2023-04-26T08:46:14;100655.84;;;28.72;52.10
61318;BME280;47201;40.428;-8.436;2023-04-26T08:48:16;100655.22;;;28.91;51.69
61318;BME280;47201;40.428;-8.436;2023-04-26T08:50:21;100652.75;;;29.44;51.36
61318;BME280;47201;40.428;-8.436;2023-04-26T08:52:22;100646.78;;;29.95;51.62
61318;BME280;47201;40.428;-8.436;2023-04-26T08:54:23;100656.22;;;30.00;51.63
61318;BME280;47201;40.428;-8.436;2023-04-26T08:56:24;100643.44;;;30.23;52.80
61318;BME280;47201;40.428;-8.436;2023-04-26T08:58:26;100642.19;;;29.85;54.76
61318;BME280;47201;40.428;-8.436;2023-04-26T09:00:27;100649.84;;;30.22;54.58
61318;BME280;47201;40.428;-8.436;2023-04-26T09:02:28;100646.13;;;30.97;53.59
61318;BME280;47201;40.428;-8.436;2023-04-26T09:04:28;100642.13;;;31.52;52.92
61318;BME280;47201;40.428;-8.436;2023-04-26T09:06:31;100651.38;;;31.49;54.65
61318;BME280;47201;40.428;-8.436;2023-04-26T09:08:32;100646.28;;;31.56;55.94
61318;BME280;47201;40.428;-8.436;2023-04-26T09:10:35;100650.00;;;32.71;53.77
61318;BME280;47201;40.428;-8.436;2023-04-26T09:12:36;100644.38;;;33.20;53.27
61318;BME280;47201;40.428;-8.436;2023-04-26T09:14:37;100645.06;;;32.94;54.61
61318;BME280;47201;40.428;-8.436;2023-04-26T09:16:38;100642.66;;;33.19;55.74
61318;BME280;47201;40.428;-8.436;2023-04-26T09:18:50;100629.94;;;33.01;57.23
61318;BME280;47201;40.428;-8.436;2023-04-26T09:21:06;100636.75;;;32.68;58.96
61318;BME280;47201;40.428;-8.436;2023-04-26T09:23:08;100631.19;;;32.79;59.52
61318;BME280;47201;40.428;-8.436;2023-04-26T09:25:09;100632.09;;;32.60;61.02
61318;BME280;47201;40.428;-8.436;2023-04-26T09:27:10;100634.22;;;33.50;59.52
61318;BME280;47201;40.428;-8.436;2023-04-26T09:29:15;100625.53;;;33.82;58.72
61318;BME280;47201;40.428;-8.436;2023-04-26T09:31:36;100640.88;;;34.36;58.65
61318;BME280;47201;40.428;-8.436;2023-04-26T09:33:58;100635.47;;;35.05;57.15
61318;BME280;47201;40.428;-8.436;2023-04-26T09:36:09;100638.13;;;35.40;57.66
61318;BME280;47201;40.428;-8.436;2023-04-26T09:38:11;100631.03;;;35.64;58.11
61318;BME280;47201;40.428;-8.436;2023-04-26T09:40:19;100630.75;;;35.16;59.90
61318;BME280;47201;40.428;-8.436;2023-04-26T09:42:19;100631.69;;;34.98;61.20
61318;BME280;47201;40.428;-8.436;2023-04-26T09:44:20;100634.91;;;34.06;63.39
61318;BME280;47201;40.428;-8.436;2023-04-26T09:46:22;100632.06;;;33.90;64.95
61318;BME280;47201;40.428;-8.436;2023-04-26T09:48:29;100628.72;;;33.96;65.21
61318;BME280;47201;40.428;-8.436;2023-04-26T09:50:30;100630.66;;;33.21;66.69
61318;BME280;47201;40.428;-8.436;2023-04-26T09:52:31;100623.31;;;32.48;69.04
61318;BME280;47201;40.428;-8.436;2023-04-26T09:56:57;100628.81;;;32.94;68.16
61318;BME280;47201;40.428;-8.436;2023-04-26T09:58:58;100632.72;;;33.74;66.97
61318;BME280;47201;40.428;-8.436;2023-04-26T10:01:00;100623.78;;;34.78;64.88
61318;BME280;47201;40.428;-8.436;2023-04-26T10:03:03;100631.06;;;32.71;69.64
61318;BME280;47201;40.428;-8.436;2023-04-26T10:05:05;100629.59;;;34.05;67.13
61318;BME280;47201;40.428;-8.436;2023-04-26T10:07:07;100627.59;;;34.59;65.67
61318;BME280;47201;40.428;-8.436;2023-04-26T10:09:08;100632.63;;;34.81;64.61
61318;BME280;47201;40.428;-8.436;2023-04-26T10:11:08;100635.91;;;35.44;65.01
61318;BME280;47201;40.428;-8.436;2023-04-26T10:13:12;100633.53;;;36.40;62.93
61318;BME280;47201;40.428;-8.436;2023-04-26T10:15:14;100628.53;;;36.68;62.67
61318;BME280;47201;40.428;-8.436;2023-04-26T10:17:15;100626.75;;;35.53;64.77
61318;BME280;47201;40.428;-8.436;2023-04-26T10:19:18;100626.38;;;36.95;62.17
61318;BME280;47201;40.428;-8.436;2023-04-26T10:21:20;100629.69;;;36.82;62.97
61318;BME280;47201;40.428;-8.436;2023-04-26T10:23:40;100622.47;;;37.29;62.54
61318;BME280;47201;40.428;-8.436;2023-04-26T10:26:00;100613.59;;;37.04;63.77
61318;BME280;47201;40.428;-8.436;2023-04-26T10:28:00;100621.88;;;37.65;62.45
61318;BME280;47201;40.428;-8.436;2023-04-26T10:32:04;100615.41;;;37.35;63.74
61318;BME280;47201;40.428;-8.436;2023-04-26T10:34:17;100602.97;;;36.77;64.76
61318;BME280;47201;40.428;-8.436;2023-04-26T10:36:18;100614.94;;;36.60;65.33
61318;BME280;47201;40.428;-8.436;2023-04-26T10:38:20;100608.25;;;37.10;65.02